sensor_id;sensor_type;location;lat;lon;timestamp;P1;durP1;ratioP1;P2;durP2;ratioP2
5650;SDS011;40241;52.684;9.758;2023-05-10T00:01:26;1.57;;;1.47;;
5650;SDS011;40241;52.684;9.758;2023-05-10T00:03:51;1.80;;;1.57;;
5650;SDS011;40241;52.684;9.758;2023-05-10T00:06:17;1.73;;;1.63;;
5650;SDS011;40241;52.684;9.758;2023-05-10T00:08:42;1.53;;;1.43;;
5650;SDS011;40241;52.684;9.758;2023-05-10T00:11:08;1.53;;;1.43;;
5650;SDS011;40241;52.684;9.758;2023-05-10T00:13:33;1.43;;;1.43;;
5650;SDS011;40241;52.684;9.758;2023-05-10T00:15:58;1.87;;;1.70;;
5650;SDS011;40241;52.684;9.758;2023-05-10T00:18:24;1.63;;;1.53;;
5650;SDS011;40241;52.684;9.758;2023-05-10T00:20:49;1.57;;;1.47;;
5650;SDS011;40241;52.684;9.758;2023-05-10T00:23:15;1.70;;;1.60;;
5650;SDS011;40241;52.684;9.758;2023-05-10T00:25:40;2.00;;;1.77;;
5650;SDS011;40241;52.684;9.758;2023-05-10T00:28:06;1.60;;;1.50;;
5650;SDS011;40241;52.684;9.758;2023-05-10T00:30:31;1.40;;;1.30;;
5650;SDS011;40241;52.684;9.758;2023-05-10T00:32:56;1.90;;;1.73;;
5650;SDS011;40241;52.684;9.758;2023-05-10T00:35:22;2.93;;;1.63;;
5650;SDS011;40241;52.684;9.758;2023-05-10T00:37:47;1.37;;;1.27;;
5650;SDS011;40241;52.684;9.758;2023-05-10T00:40:13;1.80;;;1.70;;
5650;SDS011;40241;52.684;9.758;2023-05-10T00:42:38;1.60;;;1.50;;
5650;SDS011;40241;52.684;9.758;2023-05-10T00:45:04;1.70;;;1.60;;
5650;SDS011;40241;52.684;9.758;2023-05-10T00:47:30;1.53;;;1.43;;
5650;SDS011;40241;52.684;9.758;2023-05-10T00:49:56;1.60;;;1.50;;
5650;SDS011;40241;52.684;9.758;2023-05-10T00:52:21;1.50;;;1.40;;
5650;SDS011;40241;52.684;9.758;2023-05-10T00:54:49;1.87;;;1.77;;
5650;SDS011;40241;52.684;9.758;2023-05-10T00:57:16;2.30;;;2.20;;
5650;SDS011;40241;52.684;9.758;2023-05-10T00:59:41;3.30;;;1.70;;
5650;SDS011;40241;52.684;9.758;2023-05-10T01:02:06;2.60;;;1.80;;
5650;SDS011;40241;52.684;9.758;2023-05-10T01:04:32;1.97;;;1.50;;
5650;SDS011;40241;52.684;9.758;2023-05-10T01:06:58;2.23;;;1.50;;
5650;SDS011;40241;52.684;9.758;2023-05-10T01:09:23;2.30;;;1.53;;
5650;SDS011;40241;52.684;9.758;2023-05-10T01:11:51;1.70;;;1.60;;
5650;SDS011;40241;52.684;9.758;2023-05-10T01:14:17;3.53;;;1.70;;
5650;SDS011;40241;52.684;9.758;2023-05-10T01:16:44;2.23;;;2.03;;
5650;SDS011;40241;52.684;9.758;2023-05-10T01:19:34;3.40;;;1.70;;
5650;SDS011;40241;52.684;9.758;2023-05-10T01:33:13;1.80;;;1.70;;
5650;SDS011;40241;52.684;9.758;2023-05-10T01:36:03;1.63;;;1.53;;
5650;SDS011;40241;52.684;9.758;2023-05-10T01:38:44;3.07;;;1.77;;
5650;SDS011;40241;52.684;9.758;2023-05-10T01:41:28;1.87;;;1.77;;
5650;SDS011;40241;52.684;9.758;2023-05-10T01:44:04;2.03;;;1.83;;
5650;SDS011;40241;52.684;9.758;2023-05-10T01:46:41;1.80;;;1.70;;
5650;SDS011;40241;52.684;9.758;2023-05-10T01:52:09;1.90;;;1.80;;
5650;SDS011;40241;52.684;9.758;2023-05-10T01:54:41;2.00;;;1.90;;
5650;SDS011;40241;52.684;9.758;2023-05-10T01:57:09;1.90;;;1.67;;
5650;SDS011;40241;52.684;9.758;2023-05-10T01:59:39;1.90;;;1.80;;
5650;SDS011;40241;52.684;9.758;2023-05-10T02:02:08;2.63;;;2.17;;
5650;SDS011;40241;52.684;9.758;2023-05-10T02:04:37;2.40;;;2.27;;
5650;SDS011;40241;52.684;9.758;2023-05-10T02:07:07;1.70;;;1.60;;
5650;SDS011;40241;52.684;9.758;2023-05-10T02:09:34;3.50;;;2.20;;
5650;SDS011;40241;52.684;9.758;2023-05-10T02:12:02;2.03;;;1.83;;
5650;SDS011;40241;52.684;9.758;2023-05-10T02:14:30;2.00;;;1.90;;
5650;SDS011;40241;52.684;9.758;2023-05-10T02:16:59;2.50;;;2.40;;
5650;SDS011;40241;52.684;9.758;2023-05-10T02:19:25;1.80;;;1.70;;
5650;SDS011;40241;52.684;9.758;2023-05-10T02:21:52;1.97;;;1.87;;
5650;SDS011;40241;52.684;9.758;2023-05-10T02:24:20;2.70;;;2.50;;
5650;SDS011;40241;52.684;9.758;2023-05-10T02:26:47;2.30;;;2.20;;
5650;SDS011;40241;52.684;9.758;2023-05-10T02:29:14;2.80;;;2.07;;
5650;SDS011;40241;52.684;9.758;2023-05-10T02:31:41;2.83;;;1.87;;
5650;SDS011;40241;52.684;9.758;2023-05-10T02:34:08;2.60;;;1.73;;
5650;SDS011;40241;52.684;9.758;2023-05-10T02:36:35;3.03;;;1.67;;
5650;SDS011;40241;52.684;9.758;2023-05-10T02:39:03;2.70;;;2.10;;
5650;SDS011;40241;52.684;9.758;2023-05-10T02:41:31;1.97;;;1.77;;
5650;SDS011;40241;52.684;9.758;2023-05-10T02:43:59;2.13;;;1.93;;
5650;SDS011;40241;52.684;9.758;2023-05-10T02:46:26;5.30;;;1.97;;
5650;SDS011;40241;52.684;9.758;2023-05-10T02:48:51;3.83;;;2.63;;
5650;SDS011;40241;52.684;9.758;2023-05-10T02:51:16;2.37;;;2.17;;
5650;SDS011;40241;52.684;9.758;2023-05-10T02:53:44;2.07;;;1.97;;
5650;SDS011;40241;52.684;9.758;2023-05-10T02:56:13;2.40;;;2.27;;
5650;SDS011;40241;52.684;9.758;2023-05-10T02:58:44;2.13;;;2.03;;
5650;SDS011;40241;52.684;9.758;2023-05-10T03:01:11;1.90;;;1.80;;
5650;SDS011;40241;52.684;9.758;2023-05-10T03:03:36;2.40;;;2.20;;
5650;SDS011;40241;52.684;9.758;2023-05-10T03:06:01;2.13;;;2.03;;
5650;SDS011;40241;52.684;9.758;2023-05-10T03:08:27;2.40;;;2.20;;
5650;SDS011;40241;52.684;9.758;2023-05-10T03:10:55;2.00;;;1.90;;
5650;SDS011;40241;52.684;9.758;2023-05-10T03:16:41;2.57;;;2.37;;
5650;SDS011;40241;52.684;9.758;2023-05-10T03:19:14;2.70;;;2.50;;
5650;SDS011;40241;52.684;9.758;2023-05-10T03:21:44;2.67;;;2.20;;
5650;SDS011;40241;52.684;9.758;2023-05-10T03:24:14;2.40;;;2.20;;
5650;SDS011;40241;52.684;9.758;2023-05-10T03:26:42;1.70;;;1.60;;
5650;SDS011;40241;52.684;9.758;2023-05-10T03:29:09;2.27;;;2.10;;
5650;SDS011;40241;52.684;9.758;2023-05-10T03:31:37;2.07;;;1.90;;
5650;SDS011;40241;52.684;9.758;2023-05-10T03:34:03;2.60;;;2.13;;
5650;SDS011;40241;52.684;9.758;2023-05-10T03:36:28;3.57;;;1.93;;
5650;SDS011;40241;52.684;9.758;2023-05-10T03:38:54;1.90;;;1.80;;
5650;SDS011;40241;52.684;9.758;2023-05-10T03:41:19;2.30;;;2.20;;
5650;SDS011;40241;52.684;9.758;2023-05-10T03:43:45;2.40;;;2.20;;
5650;SDS011;40241;52.684;9.758;2023-05-10T03:46:10;1.90;;;1.80;;
5650;SDS011;40241;52.684;9.758;2023-05-10T03:48:36;2.87;;;2.23;;
5650;SDS011;40241;52.684;9.758;2023-05-10T03:51:01;2.80;;;2.13;;
5650;SDS011;40241;52.684;9.758;2023-05-10T03:53:27;1.90;;;1.80;;
5650;SDS011;40241;52.684;9.758;2023-05-10T03:55:52;3.13;;;1.80;;
5650;SDS011;40241;52.684;9.758;2023-05-10T03:58:17;2.63;;;2.43;;
5650;SDS011;40241;52.684;9.758;2023-05-10T04:00:43;3.67;;;2.40;;
5650;SDS011;40241;52.684;9.758;2023-05-10T04:03:10;2.10;;;2.00;;
5650;SDS011;40241;52.684;9.758;2023-05-10T04:05:38;2.20;;;2.03;;
5650;SDS011;40241;52.684;9.758;2023-05-10T04:08:04;2.93;;;2.73;;
5650;SDS011;40241;52.684;9.758;2023-05-10T04:10:30;2.50;;;2.30;;
5650;SDS011;40241;52.684;9.758;2023-05-10T04:12:55;1.80;;;1.70;;
5650;SDS011;40241;52.684;9.758;2023-05-10T04:15:21;2.57;;;2.37;;
5650;SDS011;40241;52.684;9.758;2023-05-10T04:17:46;1.90;;;1.80;;
5650;SDS011;40241;52.684;9.758;2023-05-10T04:20:12;1.97;;;1.87;;
5650;SDS011;40241;52.684;9.758;2023-05-10T04:22:37;2.63;;;2.43;;
5650;SDS011;40241;52.684;9.758;2023-05-10T04:25:03;2.47;;;2.00;;
5650;SDS011;40241;52.684;9.758;2023-05-10T04:27:29;2.57;;;2.37;;
5650;SDS011;40241;52.684;9.758;2023-05-10T04:29:55;3.80;;;1.97;;
5650;SDS011;40241;52.684;9.758;2023-05-10T04:32:20;2.20;;;2.00;;
5650;SDS011;40241;52.684;9.758;2023-05-10T04:34:46;2.40;;;2.20;;
5650;SDS011;40241;52.684;9.758;2023-05-10T04:37:12;2.10;;;2.00;;
5650;SDS011;40241;52.684;9.758;2023-05-10T04:39:37;2.50;;;2.30;;
5650;SDS011;40241;52.684;9.758;2023-05-10T04:42:02;2.17;;;1.93;;
5650;SDS011;40241;52.684;9.758;2023-05-10T04:44:28;2.57;;;2.30;;
5650;SDS011;40241;52.684;9.758;2023-05-10T04:46:54;2.90;;;2.70;;
5650;SDS011;40241;52.684;9.758;2023-05-10T04:49:19;2.03;;;1.93;;
5650;SDS011;40241;52.684;9.758;2023-05-10T04:51:45;2.17;;;2.07;;
5650;SDS011;40241;52.684;9.758;2023-05-10T04:54:11;4.83;;;2.00;;
5650;SDS011;40241;52.684;9.758;2023-05-10T04:56:36;2.07;;;1.90;;
5650;SDS011;40241;52.684;9.758;2023-05-10T04:59:01;2.30;;;2.10;;
5650;SDS011;40241;52.684;9.758;2023-05-10T05:01:27;2.47;;;2.27;;
5650;SDS011;40241;52.684;9.758;2023-05-10T05:03:53;2.40;;;2.23;;
5650;SDS011;40241;52.684;9.758;2023-05-10T05:06:18;4.70;;;2.87;;
5650;SDS011;40241;52.684;9.758;2023-05-10T05:08:45;2.83;;;2.20;;
5650;SDS011;40241;52.684;9.758;2023-05-10T05:11:11;2.80;;;1.83;;
5650;SDS011;40241;52.684;9.758;2023-05-10T05:13:36;2.13;;;2.00;;
5650;SDS011;40241;52.684;9.758;2023-05-10T05:16:02;2.70;;;2.50;;
5650;SDS011;40241;52.684;9.758;2023-05-10T05:18:28;2.33;;;2.20;;
5650;SDS011;40241;52.684;9.758;2023-05-10T05:20:53;2.50;;;2.30;;
5650;SDS011;40241;52.684;9.758;2023-05-10T05:23:18;3.83;;;2.43;;
5650;SDS011;40241;52.684;9.758;2023-05-10T05:25:45;1.90;;;1.80;;
5650;SDS011;40241;52.684;9.758;2023-05-10T05:28:11;2.70;;;2.50;;
5650;SDS011;40241;52.684;9.758;2023-05-10T05:30:36;2.77;;;2.17;;
5650;SDS011;40241;52.684;9.758;2023-05-10T05:33:02;2.63;;;2.40;;
5650;SDS011;40241;52.684;9.758;2023-05-10T05:35:27;2.90;;;2.70;;
5650;SDS011;40241;52.684;9.758;2023-05-10T05:37:53;2.77;;;2.57;;
5650;SDS011;40241;52.684;9.758;2023-05-10T05:40:18;2.53;;;2.33;;
5650;SDS011;40241;52.684;9.758;2023-05-10T05:42:43;3.40;;;2.17;;
5650;SDS011;40241;52.684;9.758;2023-05-10T05:45:09;2.73;;;2.53;;
5650;SDS011;40241;52.684;9.758;2023-05-10T05:47:37;2.30;;;2.20;;
5650;SDS011;40241;52.684;9.758;2023-05-10T05:50:03;2.30;;;2.20;;
5650;SDS011;40241;52.684;9.758;2023-05-10T05:52:29;3.10;;;2.10;;
5650;SDS011;40241;52.684;9.758;2023-05-10T05:54:55;2.30;;;2.10;;
5650;SDS011;40241;52.684;9.758;2023-05-10T05:57:20;2.23;;;2.13;;
5650;SDS011;40241;52.684;9.758;2023-05-10T05:59:46;7.10;;;2.43;;
5650;SDS011;40241;52.684;9.758;2023-05-10T06:02:12;3.00;;;2.63;;
5650;SDS011;40241;52.684;9.758;2023-05-10T06:04:37;3.67;;;2.70;;
5650;SDS011;40241;52.684;9.758;2023-05-10T06:07:03;2.50;;;2.30;;
5650;SDS011;40241;52.684;9.758;2023-05-10T06:09:28;2.60;;;2.40;;
5650;SDS011;40241;52.684;9.758;2023-05-10T06:11:53;3.07;;;2.77;;
5650;SDS011;40241;52.684;9.758;2023-05-10T06:14:23;2.67;;;2.47;;
5650;SDS011;40241;52.684;9.758;2023-05-10T06:16:48;2.80;;;2.60;;
5650;SDS011;40241;52.684;9.758;2023-05-10T06:19:13;2.73;;;2.53;;
5650;SDS011;40241;52.684;9.758;2023-05-10T06:21:39;2.80;;;2.60;;
5650;SDS011;40241;52.684;9.758;2023-05-10T06:24:05;3.10;;;2.90;;
5650;SDS011;40241;52.684;9.758;2023-05-10T06:26:31;5.03;;;3.20;;
5650;SDS011;40241;52.684;9.758;2023-05-10T06:28:57;3.27;;;2.87;;
5650;SDS011;40241;52.684;9.758;2023-05-10T06:31:22;3.50;;;3.20;;
5650;SDS011;40241;52.684;9.758;2023-05-10T06:33:48;2.97;;;2.77;;
5650;SDS011;40241;52.684;9.758;2023-05-10T06:36:13;3.80;;;3.50;;
5650;SDS011;40241;52.684;9.758;2023-05-10T06:38:38;3.20;;;3.00;;
5650;SDS011;40241;52.684;9.758;2023-05-10T06:41:04;3.07;;;2.87;;
5650;SDS011;40241;52.684;9.758;2023-05-10T06:43:29;2.80;;;2.60;;
5650;SDS011;40241;52.684;9.758;2023-05-10T06:45:55;3.30;;;2.97;;
5650;SDS011;40241;52.684;9.758;2023-05-10T06:48:20;3.93;;;3.57;;
5650;SDS011;40241;52.684;9.758;2023-05-10T06:50:46;3.73;;;3.43;;
5650;SDS011;40241;52.684;9.758;2023-05-10T06:53:11;3.00;;;2.80;;
5650;SDS011;40241;52.684;9.758;2023-05-10T06:55:37;2.73;;;2.60;;
5650;SDS011;40241;52.684;9.758;2023-05-10T06:58:02;3.00;;;2.80;;
5650;SDS011;40241;52.684;9.758;2023-05-10T07:00:27;3.77;;;3.57;;
5650;SDS011;40241;52.684;9.758;2023-05-10T07:02:53;3.37;;;3.17;;
5650;SDS011;40241;52.684;9.758;2023-05-10T07:05:18;6.37;;;3.77;;
5650;SDS011;40241;52.684;9.758;2023-05-10T07:07:44;3.60;;;3.30;;
5650;SDS011;40241;52.684;9.758;2023-05-10T07:10:10;3.30;;;3.10;;
5650;SDS011;40241;52.684;9.758;2023-05-10T07:12:35;3.10;;;2.90;;
5650;SDS011;40241;52.684;9.758;2023-05-10T07:15:00;3.60;;;3.33;;
5650;SDS011;40241;52.684;9.758;2023-05-10T07:17:26;3.40;;;3.13;;
5650;SDS011;40241;52.684;9.758;2023-05-10T07:19:51;3.13;;;2.87;;
5650;SDS011;40241;52.684;9.758;2023-05-10T07:22:16;6.43;;;3.27;;
5650;SDS011;40241;52.684;9.758;2023-05-10T07:24:42;2.73;;;2.60;;
5650;SDS011;40241;52.684;9.758;2023-05-10T07:27:07;3.37;;;3.17;;
5650;SDS011;40241;52.684;9.758;2023-05-10T07:29:33;3.00;;;2.80;;
5650;SDS011;40241;52.684;9.758;2023-05-10T07:31:59;3.43;;;3.23;;
5650;SDS011;40241;52.684;9.758;2023-05-10T07:34:25;3.27;;;3.07;;
5650;SDS011;40241;52.684;9.758;2023-05-10T07:36:50;4.27;;;3.90;;
5650;SDS011;40241;52.684;9.758;2023-05-10T07:39:16;4.70;;;4.17;;
5650;SDS011;40241;52.684;9.758;2023-05-10T07:41:41;6.90;;;3.67;;
5650;SDS011;40241;52.684;9.758;2023-05-10T07:44:07;3.53;;;3.23;;
5650;SDS011;40241;52.684;9.758;2023-05-10T07:46:32;4.70;;;4.20;;
5650;SDS011;40241;52.684;9.758;2023-05-10T07:48:58;3.60;;;3.40;;
5650;SDS011;40241;52.684;9.758;2023-05-10T07:51:23;4.70;;;4.30;;
5650;SDS011;40241;52.684;9.758;2023-05-10T07:53:49;4.37;;;4.07;;
5650;SDS011;40241;52.684;9.758;2023-05-10T07:58:47;3.80;;;3.50;;
5650;SDS011;40241;52.684;9.758;2023-05-10T08:01:12;3.63;;;3.33;;
5650;SDS011;40241;52.684;9.758;2023-05-10T08:03:38;4.27;;;3.97;;
5650;SDS011;40241;52.684;9.758;2023-05-10T08:06:03;3.77;;;3.50;;
5650;SDS011;40241;52.684;9.758;2023-05-10T08:08:29;4.00;;;3.60;;
5650;SDS011;40241;52.684;9.758;2023-05-10T08:10:54;4.27;;;3.93;;
5650;SDS011;40241;52.684;9.758;2023-05-10T08:13:19;3.80;;;3.50;;
5650;SDS011;40241;52.684;9.758;2023-05-10T08:15:46;4.20;;;3.90;;
5650;SDS011;40241;52.684;9.758;2023-05-10T08:18:11;4.00;;;3.70;;
5650;SDS011;40241;52.684;9.758;2023-05-10T08:20:37;4.00;;;3.70;;
5650;SDS011;40241;52.684;9.758;2023-05-10T08:23:02;4.10;;;3.80;;
5650;SDS011;40241;52.684;9.758;2023-05-10T08:25:27;4.30;;;3.90;;
5650;SDS011;40241;52.684;9.758;2023-05-10T08:27:52;5.77;;;4.00;;
5650;SDS011;40241;52.684;9.758;2023-05-10T08:30:18;4.90;;;4.37;;
5650;SDS011;40241;52.684;9.758;2023-05-10T08:32:43;4.87;;;4.47;;
5650;SDS011;40241;52.684;9.758;2023-05-10T08:35:09;3.83;;;3.63;;
5650;SDS011;40241;52.684;9.758;2023-05-10T08:37:34;3.90;;;3.50;;
5650;SDS011;40241;52.684;9.758;2023-05-10T08:39:59;4.00;;;3.70;;
5650;SDS011;40241;52.684;9.758;2023-05-10T08:42:25;3.20;;;3.00;;
5650;SDS011;40241;52.684;9.758;2023-05-10T08:44:55;2.83;;;2.67;;
5650;SDS011;40241;52.684;9.758;2023-05-10T08:47:22;3.10;;;2.90;;
5650;SDS011;40241;52.684;9.758;2023-05-10T08:49:48;3.03;;;2.83;;
5650;SDS011;40241;52.684;9.758;2023-05-10T08:52:16;3.13;;;2.93;;
5650;SDS011;40241;52.684;9.758;2023-05-10T08:54:42;3.40;;;3.17;;
5650;SDS011;40241;52.684;9.758;2023-05-10T08:57:08;3.40;;;3.10;;
5650;SDS011;40241;52.684;9.758;2023-05-10T08:59:34;3.63;;;2.67;;
5650;SDS011;40241;52.684;9.758;2023-05-10T09:02:00;3.23;;;3.03;;
5650;SDS011;40241;52.684;9.758;2023-05-10T09:04:26;3.13;;;2.93;;
5650;SDS011;40241;52.684;9.758;2023-05-10T09:06:53;3.20;;;2.93;;
5650;SDS011;40241;52.684;9.758;2023-05-10T09:09:19;6.00;;;3.57;;
5650;SDS011;40241;52.684;9.758;2023-05-10T09:11:45;3.60;;;3.30;;
5650;SDS011;40241;52.684;9.758;2023-05-10T09:14:11;4.30;;;3.30;;
5650;SDS011;40241;52.684;9.758;2023-05-10T09:16:38;3.70;;;3.40;;
5650;SDS011;40241;52.684;9.758;2023-05-10T09:19:03;3.70;;;3.50;;
5650;SDS011;40241;52.684;9.758;2023-05-10T09:21:29;3.23;;;2.87;;
5650;SDS011;40241;52.684;9.758;2023-05-10T09:23:56;3.67;;;3.47;;
5650;SDS011;40241;52.684;9.758;2023-05-10T09:26:21;3.90;;;3.60;;
5650;SDS011;40241;52.684;9.758;2023-05-10T09:28:58;3.80;;;3.50;;
5650;SDS011;40241;52.684;9.758;2023-05-10T09:31:25;3.50;;;3.30;;
5650;SDS011;40241;52.684;9.758;2023-05-10T09:34:09;2.87;;;2.70;;
5650;SDS011;40241;52.684;9.758;2023-05-10T09:36:35;3.10;;;2.90;;
5650;SDS011;40241;52.684;9.758;2023-05-10T09:39:00;2.57;;;2.47;;
5650;SDS011;40241;52.684;9.758;2023-05-10T09:41:25;2.53;;;2.43;;
5650;SDS011;40241;52.684;9.758;2023-05-10T09:43:55;3.80;;;2.30;;
5650;SDS011;40241;52.684;9.758;2023-05-10T09:46:21;2.87;;;2.67;;
5650;SDS011;40241;52.684;9.758;2023-05-10T09:48:47;2.43;;;2.30;;
5650;SDS011;40241;52.684;9.758;2023-05-10T09:51:20;2.57;;;2.47;;
5650;SDS011;40241;52.684;9.758;2023-05-10T09:53:53;2.90;;;2.70;;
5650;SDS011;40241;52.684;9.758;2023-05-10T09:56:35;4.80;;;2.60;;
5650;SDS011;40241;52.684;9.758;2023-05-10T09:59:04;2.40;;;2.30;;
5650;SDS011;40241;52.684;9.758;2023-05-10T10:01:31;2.40;;;2.23;;
5650;SDS011;40241;52.684;9.758;2023-05-10T10:03:56;4.10;;;2.50;;
5650;SDS011;40241;52.684;9.758;2023-05-10T10:06:23;2.23;;;2.10;;
5650;SDS011;40241;52.684;9.758;2023-05-10T10:08:49;1.97;;;1.87;;
5650;SDS011;40241;52.684;9.758;2023-05-10T10:11:16;1.80;;;1.73;;
5650;SDS011;40241;52.684;9.758;2023-05-10T10:13:41;1.80;;;1.70;;
5650;SDS011;40241;52.684;9.758;2023-05-10T10:16:08;1.67;;;1.57;;
5650;SDS011;40241;52.684;9.758;2023-05-10T10:18:33;2.00;;;1.90;;
5650;SDS011;40241;52.684;9.758;2023-05-10T10:21:04;1.80;;;1.70;;
5650;SDS011;40241;52.684;9.758;2023-05-10T10:23:31;1.77;;;1.67;;
5650;SDS011;40241;52.684;9.758;2023-05-10T10:25:56;1.97;;;1.87;;
5650;SDS011;40241;52.684;9.758;2023-05-10T10:30:51;1.83;;;1.73;;
5650;SDS011;40241;52.684;9.758;2023-05-10T10:36:11;1.30;;;1.30;;
5650;SDS011;40241;52.684;9.758;2023-05-10T10:49:49;1.60;;;1.50;;
5650;SDS011;40241;52.684;9.758;2023-05-10T10:55:14;1.73;;;1.63;;
5650;SDS011;40241;52.684;9.758;2023-05-10T11:07:57;1.67;;;1.57;;
5650;SDS011;40241;52.684;9.758;2023-05-10T11:10:24;1.90;;;1.80;;
5650;SDS011;40241;52.684;9.758;2023-05-10T11:12:52;1.80;;;1.70;;
5650;SDS011;40241;52.684;9.758;2023-05-10T11:15:34;1.67;;;1.57;;
5650;SDS011;40241;52.684;9.758;2023-05-10T11:18:17;1.37;;;1.30;;
5650;SDS011;40241;52.684;9.758;2023-05-10T11:20:43;1.33;;;1.23;;
5650;SDS011;40241;52.684;9.758;2023-05-10T11:23:12;1.60;;;1.50;;
5650;SDS011;40241;52.684;9.758;2023-05-10T11:25:44;1.47;;;1.40;;
5650;SDS011;40241;52.684;9.758;2023-05-10T11:28:13;2.30;;;1.90;;
5650;SDS011;40241;52.684;9.758;2023-05-10T11:30:40;1.57;;;1.50;;
5650;SDS011;40241;52.684;9.758;2023-05-10T11:33:08;2.70;;;1.40;;
5650;SDS011;40241;52.684;9.758;2023-05-10T11:35:39;1.43;;;1.33;;
5650;SDS011;40241;52.684;9.758;2023-05-10T11:38:09;1.53;;;1.40;;
5650;SDS011;40241;52.684;9.758;2023-05-10T11:40:35;1.70;;;1.60;;
5650;SDS011;40241;52.684;9.758;2023-05-10T11:43:02;2.03;;;1.93;;
5650;SDS011;40241;52.684;9.758;2023-05-10T11:45:28;1.80;;;1.70;;
5650;SDS011;40241;52.684;9.758;2023-05-10T11:47:56;1.80;;;1.70;;
5650;SDS011;40241;52.684;9.758;2023-05-10T11:50:22;1.70;;;1.60;;
5650;SDS011;40241;52.684;9.758;2023-05-10T11:52:54;1.87;;;1.77;;
5650;SDS011;40241;52.684;9.758;2023-05-10T11:55:20;1.43;;;1.43;;
5650;SDS011;40241;52.684;9.758;2023-05-10T11:57:45;2.07;;;1.97;;
5650;SDS011;40241;52.684;9.758;2023-05-10T12:00:14;1.80;;;1.70;;
5650;SDS011;40241;52.684;9.758;2023-05-10T12:02:40;2.00;;;1.90;;
5650;SDS011;40241;52.684;9.758;2023-05-10T12:05:05;2.10;;;2.00;;
5650;SDS011;40241;52.684;9.758;2023-05-10T12:07:32;2.10;;;2.00;;
5650;SDS011;40241;52.684;9.758;2023-05-10T12:10:10;1.90;;;1.80;;
5650;SDS011;40241;52.684;9.758;2023-05-10T12:12:43;2.03;;;1.90;;
5650;SDS011;40241;52.684;9.758;2023-05-10T12:15:18;2.13;;;2.03;;
5650;SDS011;40241;52.684;9.758;2023-05-10T12:17:45;2.20;;;2.00;;
5650;SDS011;40241;52.684;9.758;2023-05-10T12:20:15;1.97;;;1.87;;
5650;SDS011;40241;52.684;9.758;2023-05-10T12:22:52;2.67;;;2.10;;
5650;SDS011;40241;52.684;9.758;2023-05-10T12:25:20;2.17;;;2.07;;
5650;SDS011;40241;52.684;9.758;2023-05-10T12:27:55;1.70;;;1.60;;
5650;SDS011;40241;52.684;9.758;2023-05-10T12:30:31;2.40;;;1.70;;
5650;SDS011;40241;52.684;9.758;2023-05-10T12:33:01;2.00;;;1.90;;
5650;SDS011;40241;52.684;9.758;2023-05-10T12:35:32;1.70;;;1.60;;
5650;SDS011;40241;52.684;9.758;2023-05-10T12:37:58;2.17;;;1.97;;
5650;SDS011;40241;52.684;9.758;2023-05-10T12:40:24;2.27;;;2.07;;
5650;SDS011;40241;52.684;9.758;2023-05-10T12:42:49;1.97;;;1.63;;
5650;SDS011;40241;52.684;9.758;2023-05-10T12:45:16;5.40;;;1.97;;
5650;SDS011;40241;52.684;9.758;2023-05-10T12:47:42;3.97;;;2.10;;
5650;SDS011;40241;52.684;9.758;2023-05-10T12:50:08;1.93;;;1.80;;
5650;SDS011;40241;52.684;9.758;2023-05-10T12:52:34;1.80;;;1.70;;
5650;SDS011;40241;52.684;9.758;2023-05-10T12:54:59;2.30;;;2.20;;
5650;SDS011;40241;52.684;9.758;2023-05-10T12:57:25;2.00;;;1.80;;
5650;SDS011;40241;52.684;9.758;2023-05-10T12:59:51;1.33;;;1.33;;
5650;SDS011;40241;52.684;9.758;2023-05-10T13:02:16;1.60;;;1.50;;
5650;SDS011;40241;52.684;9.758;2023-05-10T13:04:46;2.03;;;1.40;;
5650;SDS011;40241;52.684;9.758;2023-05-10T13:07:12;2.70;;;2.30;;
5650;SDS011;40241;52.684;9.758;2023-05-10T13:09:37;4.00;;;2.30;;
5650;SDS011;40241;52.684;9.758;2023-05-10T13:12:03;3.20;;;2.90;;
5650;SDS011;40241;52.684;9.758;2023-05-10T13:14:28;2.97;;;2.60;;
5650;SDS011;40241;52.684;9.758;2023-05-10T13:16:54;2.40;;;2.20;;
5650;SDS011;40241;52.684;9.758;2023-05-10T13:19:20;9.67;;;1.77;;
5650;SDS011;40241;52.684;9.758;2023-05-10T13:21:45;2.00;;;1.90;;
5650;SDS011;40241;52.684;9.758;2023-05-10T13:24:11;1.80;;;1.70;;
5650;SDS011;40241;52.684;9.758;2023-05-10T13:26:38;1.63;;;1.53;;
5650;SDS011;40241;52.684;9.758;2023-05-10T13:29:05;2.80;;;1.90;;
5650;SDS011;40241;52.684;9.758;2023-05-10T13:31:30;2.70;;;1.83;;
5650;SDS011;40241;52.684;9.758;2023-05-10T13:33:55;1.90;;;1.80;;
5650;SDS011;40241;52.684;9.758;2023-05-10T13:36:21;3.20;;;2.30;;
5650;SDS011;40241;52.684;9.758;2023-05-10T13:38:47;2.40;;;2.20;;
5650;SDS011;40241;52.684;9.758;2023-05-10T13:41:13;2.40;;;2.07;;
5650;SDS011;40241;52.684;9.758;2023-05-10T13:43:38;2.03;;;1.93;;
5650;SDS011;40241;52.684;9.758;2023-05-10T13:46:03;2.20;;;2.10;;
5650;SDS011;40241;52.684;9.758;2023-05-10T13:48:29;2.60;;;2.40;;
5650;SDS011;40241;52.684;9.758;2023-05-10T13:50:54;3.03;;;2.40;;
5650;SDS011;40241;52.684;9.758;2023-05-10T13:53:19;2.30;;;2.10;;
5650;SDS011;40241;52.684;9.758;2023-05-10T13:55:45;2.20;;;2.00;;
5650;SDS011;40241;52.684;9.758;2023-05-10T13:58:11;2.40;;;2.30;;
5650;SDS011;40241;52.684;9.758;2023-05-10T14:00:36;2.17;;;2.07;;
5650;SDS011;40241;52.684;9.758;2023-05-10T14:03:01;2.97;;;2.73;;
5650;SDS011;40241;52.684;9.758;2023-05-10T14:05:27;3.30;;;2.47;;
5650;SDS011;40241;52.684;9.758;2023-05-10T14:07:52;2.93;;;2.73;;
5650;SDS011;40241;52.684;9.758;2023-05-10T14:10:18;3.93;;;2.60;;
5650;SDS011;40241;52.684;9.758;2023-05-10T14:12:44;3.60;;;2.93;;
5650;SDS011;40241;52.684;9.758;2023-05-10T14:15:09;2.53;;;2.40;;
5650;SDS011;40241;52.684;9.758;2023-05-10T14:17:36;3.63;;;3.33;;
5650;SDS011;40241;52.684;9.758;2023-05-10T14:20:01;2.90;;;2.60;;
5650;SDS011;40241;52.684;9.758;2023-05-10T14:22:28;3.50;;;3.07;;
5650;SDS011;40241;52.684;9.758;2023-05-10T14:24:54;3.07;;;2.87;;
5650;SDS011;40241;52.684;9.758;2023-05-10T14:27:19;3.13;;;2.93;;
5650;SDS011;40241;52.684;9.758;2023-05-10T14:29:45;3.23;;;2.93;;
5650;SDS011;40241;52.684;9.758;2023-05-10T14:32:10;3.50;;;3.20;;
5650;SDS011;40241;52.684;9.758;2023-05-10T14:34:35;3.80;;;3.50;;
5650;SDS011;40241;52.684;9.758;2023-05-10T14:37:01;4.30;;;3.17;;
5650;SDS011;40241;52.684;9.758;2023-05-10T14:39:26;4.23;;;3.70;;
5650;SDS011;40241;52.684;9.758;2023-05-10T14:41:54;4.53;;;3.67;;
5650;SDS011;40241;52.684;9.758;2023-05-10T14:44:20;3.93;;;3.53;;
5650;SDS011;40241;52.684;9.758;2023-05-10T14:46:45;5.30;;;4.23;;
5650;SDS011;40241;52.684;9.758;2023-05-10T14:49:10;4.57;;;4.00;;
5650;SDS011;40241;52.684;9.758;2023-05-10T14:51:36;4.97;;;4.13;;
5650;SDS011;40241;52.684;9.758;2023-05-10T14:54:01;3.33;;;3.13;;
5650;SDS011;40241;52.684;9.758;2023-05-10T14:56:27;3.40;;;3.20;;
5650;SDS011;40241;52.684;9.758;2023-05-10T14:58:52;4.20;;;3.77;;
5650;SDS011;40241;52.684;9.758;2023-05-10T15:01:18;6.50;;;4.13;;
5650;SDS011;40241;52.684;9.758;2023-05-10T15:03:44;3.57;;;3.27;;
5650;SDS011;40241;52.684;9.758;2023-05-10T15:06:09;4.33;;;2.87;;
5650;SDS011;40241;52.684;9.758;2023-05-10T15:08:35;4.40;;;3.30;;
5650;SDS011;40241;52.684;9.758;2023-05-10T15:11:00;3.93;;;3.60;;
5650;SDS011;40241;52.684;9.758;2023-05-10T15:13:26;3.80;;;3.50;;
5650;SDS011;40241;52.684;9.758;2023-05-10T15:15:51;4.40;;;4.00;;
5650;SDS011;40241;52.684;9.758;2023-05-10T15:18:17;3.53;;;3.23;;
5650;SDS011;40241;52.684;9.758;2023-05-10T15:20:42;3.73;;;3.43;;
5650;SDS011;40241;52.684;9.758;2023-05-10T15:23:07;4.00;;;3.70;;
5650;SDS011;40241;52.684;9.758;2023-05-10T15:25:33;4.50;;;4.10;;
5650;SDS011;40241;52.684;9.758;2023-05-10T15:28:02;4.20;;;3.90;;
5650;SDS011;40241;52.684;9.758;2023-05-10T15:30:28;5.20;;;4.40;;
5650;SDS011;40241;52.684;9.758;2023-05-10T15:32:54;4.30;;;3.90;;
5650;SDS011;40241;52.684;9.758;2023-05-10T15:35:20;4.43;;;4.10;;
5650;SDS011;40241;52.684;9.758;2023-05-10T15:37:46;3.93;;;3.60;;
5650;SDS011;40241;52.684;9.758;2023-05-10T15:40:12;4.20;;;3.53;;
5650;SDS011;40241;52.684;9.758;2023-05-10T15:42:38;2.97;;;2.77;;
5650;SDS011;40241;52.684;9.758;2023-05-10T15:45:03;2.00;;;1.90;;
5650;SDS011;40241;52.684;9.758;2023-05-10T15:47:29;2.00;;;1.90;;